sensor_id;sensor_type;location;lat;lon;timestamp;P1;durP1;ratioP1;P2;durP2;ratioP2
5559;SDS011;2803;47.916;8.074;2023-06-22T00:01:11;14.80;;;6.57;;
5559;SDS011;2803;47.916;8.074;2023-06-22T00:03:38;22.00;;;7.60;;
5559;SDS011;2803;47.916;8.074;2023-06-22T00:06:04;14.40;;;7.20;;
5559;SDS011;2803;47.916;8.074;2023-06-22T00:08:31;21.00;;;7.87;;
5559;SDS011;2803;47.916;8.074;2023-06-22T00:10:59;25.70;;;7.93;;
5559;SDS011;2803;47.916;8.074;2023-06-22T00:13:25;24.20;;;6.97;;
5559;SDS011;2803;47.916;8.074;2023-06-22T00:15:52;17.67;;;8.10;;
5559;SDS011;2803;47.916;8.074;2023-06-22T00:18:18;15.80;;;8.47;;
5559;SDS011;2803;47.916;8.074;2023-06-22T00:20:45;15.20;;;6.93;;
5559;SDS011;2803;47.916;8.074;2023-06-22T00:23:12;13.13;;;7.37;;
5559;SDS011;2803;47.916;8.074;2023-06-22T00:25:40;12.50;;;6.10;;
5559;SDS011;2803;47.916;8.074;2023-06-22T00:28:08;19.43;;;7.27;;
5559;SDS011;2803;47.916;8.074;2023-06-22T00:30:35;10.83;;;6.43;;
5559;SDS011;2803;47.916;8.074;2023-06-22T00:33:02;12.13;;;6.90;;
5559;SDS011;2803;47.916;8.074;2023-06-22T00:35:28;13.90;;;6.63;;
5559;SDS011;2803;47.916;8.074;2023-06-22T00:37:55;12.47;;;7.03;;
5559;SDS011;2803;47.916;8.074;2023-06-22T00:40:25;14.07;;;6.70;;
5559;SDS011;2803;47.916;8.074;2023-06-22T00:42:52;12.63;;;6.63;;
5559;SDS011;2803;47.916;8.074;2023-06-22T00:45:20;13.60;;;6.00;;
5559;SDS011;2803;47.916;8.074;2023-06-22T00:47:48;15.47;;;6.20;;
5559;SDS011;2803;47.916;8.074;2023-06-22T00:50:16;13.50;;;5.80;;
5559;SDS011;2803;47.916;8.074;2023-06-22T00:52:46;13.53;;;5.70;;
5559;SDS011;2803;47.916;8.074;2023-06-22T00:55:14;13.00;;;7.07;;
5559;SDS011;2803;47.916;8.074;2023-06-22T00:57:42;13.50;;;7.10;;
5559;SDS011;2803;47.916;8.074;2023-06-22T01:00:10;21.10;;;7.60;;
5559;SDS011;2803;47.916;8.074;2023-06-22T01:02:45;15.03;;;6.10;;
5559;SDS011;2803;47.916;8.074;2023-06-22T01:05:14;11.00;;;6.77;;
5559;SDS011;2803;47.916;8.074;2023-06-22T01:07:42;16.10;;;5.97;;
5559;SDS011;2803;47.916;8.074;2023-06-22T01:10:19;18.13;;;6.47;;
5559;SDS011;2803;47.916;8.074;2023-06-22T01:12:51;13.27;;;6.80;;
5559;SDS011;2803;47.916;8.074;2023-06-22T01:15:21;15.23;;;5.70;;
5559;SDS011;2803;47.916;8.074;2023-06-22T01:17:55;14.60;;;6.47;;
5559;SDS011;2803;47.916;8.074;2023-06-22T01:20:23;18.27;;;7.00;;
5559;SDS011;2803;47.916;8.074;2023-06-22T01:22:57;11.93;;;6.57;;
5559;SDS011;2803;47.916;8.074;2023-06-22T01:25:33;15.67;;;6.47;;
5559;SDS011;2803;47.916;8.074;2023-06-22T01:28:11;14.77;;;6.73;;
5559;SDS011;2803;47.916;8.074;2023-06-22T01:30:50;16.73;;;6.87;;
5559;SDS011;2803;47.916;8.074;2023-06-22T01:33:31;14.10;;;6.23;;
5559;SDS011;2803;47.916;8.074;2023-06-22T01:36:00;18.20;;;6.47;;
5559;SDS011;2803;47.916;8.074;2023-06-22T01:38:28;18.53;;;6.77;;
5559;SDS011;2803;47.916;8.074;2023-06-22T01:40:56;19.40;;;6.00;;
5559;SDS011;2803;47.916;8.074;2023-06-22T01:43:24;11.27;;;6.40;;
5559;SDS011;2803;47.916;8.074;2023-06-22T01:45:54;15.93;;;5.90;;
5559;SDS011;2803;47.916;8.074;2023-06-22T01:48:21;13.60;;;7.40;;
5559;SDS011;2803;47.916;8.074;2023-06-22T01:50:50;19.67;;;8.07;;
5559;SDS011;2803;47.916;8.074;2023-06-22T01:53:17;15.90;;;6.57;;
5559;SDS011;2803;47.916;8.074;2023-06-22T01:55:44;15.60;;;5.83;;
5559;SDS011;2803;47.916;8.074;2023-06-22T01:58:10;13.67;;;6.17;;
5559;SDS011;2803;47.916;8.074;2023-06-22T02:00:37;12.37;;;6.10;;
5559;SDS011;2803;47.916;8.074;2023-06-22T02:03:08;18.07;;;6.73;;
5559;SDS011;2803;47.916;8.074;2023-06-22T02:05:43;15.90;;;6.33;;
5559;SDS011;2803;47.916;8.074;2023-06-22T02:08:16;12.20;;;6.40;;
5559;SDS011;2803;47.916;8.074;2023-06-22T02:10:46;17.33;;;7.20;;
5559;SDS011;2803;47.916;8.074;2023-06-22T02:13:16;12.87;;;6.23;;
5559;SDS011;2803;47.916;8.074;2023-06-22T02:15:44;9.50;;;5.30;;
5559;SDS011;2803;47.916;8.074;2023-06-22T02:18:13;11.73;;;6.63;;
5559;SDS011;2803;47.916;8.074;2023-06-22T02:20:40;12.40;;;6.20;;
5559;SDS011;2803;47.916;8.074;2023-06-22T02:23:06;19.20;;;6.67;;
5559;SDS011;2803;47.916;8.074;2023-06-22T02:25:33;12.07;;;7.10;;
5559;SDS011;2803;47.916;8.074;2023-06-22T02:28:00;21.07;;;6.37;;
5559;SDS011;2803;47.916;8.074;2023-06-22T02:30:27;23.30;;;6.70;;
5559;SDS011;2803;47.916;8.074;2023-06-22T02:32:53;15.13;;;6.50;;
5559;SDS011;2803;47.916;8.074;2023-06-22T02:35:25;24.43;;;7.23;;
5559;SDS011;2803;47.916;8.074;2023-06-22T02:37:52;17.73;;;6.90;;
5559;SDS011;2803;47.916;8.074;2023-06-22T02:40:19;15.83;;;6.57;;
5559;SDS011;2803;47.916;8.074;2023-06-22T02:42:45;15.30;;;7.37;;
5559;SDS011;2803;47.916;8.074;2023-06-22T02:45:13;16.67;;;7.70;;
5559;SDS011;2803;47.916;8.074;2023-06-22T02:47:40;16.03;;;6.70;;
5559;SDS011;2803;47.916;8.074;2023-06-22T02:50:07;14.20;;;7.47;;
5559;SDS011;2803;47.916;8.074;2023-06-22T02:52:35;13.90;;;6.47;;
5559;SDS011;2803;47.916;8.074;2023-06-22T02:55:03;15.17;;;6.47;;
5559;SDS011;2803;47.916;8.074;2023-06-22T02:57:30;10.70;;;6.93;;
5559;SDS011;2803;47.916;8.074;2023-06-22T02:59:57;20.87;;;7.70;;
5559;SDS011;2803;47.916;8.074;2023-06-22T03:02:23;14.40;;;7.40;;
5559;SDS011;2803;47.916;8.074;2023-06-22T03:04:51;17.60;;;7.87;;
5559;SDS011;2803;47.916;8.074;2023-06-22T03:07:18;18.63;;;7.27;;
5559;SDS011;2803;47.916;8.074;2023-06-22T03:09:46;18.73;;;7.00;;
5559;SDS011;2803;47.916;8.074;2023-06-22T03:12:13;17.13;;;6.93;;
5559;SDS011;2803;47.916;8.074;2023-06-22T03:14:40;19.20;;;7.57;;
5559;SDS011;2803;47.916;8.074;2023-06-22T03:17:07;23.90;;;7.63;;
5559;SDS011;2803;47.916;8.074;2023-06-22T03:19:33;16.17;;;7.03;;
5559;SDS011;2803;47.916;8.074;2023-06-22T03:22:00;11.77;;;6.00;;
5559;SDS011;2803;47.916;8.074;2023-06-22T03:24:27;20.10;;;7.23;;
5559;SDS011;2803;47.916;8.074;2023-06-22T03:26:55;12.40;;;7.07;;
5559;SDS011;2803;47.916;8.074;2023-06-22T03:29:22;14.77;;;6.93;;
5559;SDS011;2803;47.916;8.074;2023-06-22T03:31:50;12.57;;;6.47;;
5559;SDS011;2803;47.916;8.074;2023-06-22T03:34:17;15.90;;;7.70;;
5559;SDS011;2803;47.916;8.074;2023-06-22T03:36:43;18.97;;;8.07;;
5559;SDS011;2803;47.916;8.074;2023-06-22T03:39:11;23.00;;;7.33;;
5559;SDS011;2803;47.916;8.074;2023-06-22T03:41:38;15.10;;;7.50;;
5559;SDS011;2803;47.916;8.074;2023-06-22T03:44:06;12.83;;;5.83;;
5559;SDS011;2803;47.916;8.074;2023-06-22T03:46:35;14.80;;;7.20;;
5559;SDS011;2803;47.916;8.074;2023-06-22T03:49:02;15.60;;;6.00;;
5559;SDS011;2803;47.916;8.074;2023-06-22T03:51:28;16.70;;;6.80;;
5559;SDS011;2803;47.916;8.074;2023-06-22T03:53:55;22.20;;;6.90;;
5559;SDS011;2803;47.916;8.074;2023-06-22T03:56:22;16.00;;;6.67;;
5559;SDS011;2803;47.916;8.074;2023-06-22T03:58:48;14.50;;;6.63;;
5559;SDS011;2803;47.916;8.074;2023-06-22T04:01:17;16.00;;;6.53;;
5559;SDS011;2803;47.916;8.074;2023-06-22T04:03:44;17.57;;;6.67;;
5559;SDS011;2803;47.916;8.074;2023-06-22T04:06:13;22.03;;;8.00;;
5559;SDS011;2803;47.916;8.074;2023-06-22T04:08:39;12.13;;;6.30;;
5559;SDS011;2803;47.916;8.074;2023-06-22T04:11:07;14.03;;;6.33;;
5559;SDS011;2803;47.916;8.074;2023-06-22T04:13:33;12.20;;;6.57;;
5559;SDS011;2803;47.916;8.074;2023-06-22T04:16:00;13.53;;;6.27;;
5559;SDS011;2803;47.916;8.074;2023-06-22T04:18:28;13.13;;;6.60;;
5559;SDS011;2803;47.916;8.074;2023-06-22T04:20:55;10.13;;;5.90;;
5559;SDS011;2803;47.916;8.074;2023-06-22T04:23:21;11.07;;;7.13;;
5559;SDS011;2803;47.916;8.074;2023-06-22T04:25:48;14.40;;;7.00;;
5559;SDS011;2803;47.916;8.074;2023-06-22T04:28:16;16.13;;;7.07;;
5559;SDS011;2803;47.916;8.074;2023-06-22T04:30:43;14.13;;;6.93;;
5559;SDS011;2803;47.916;8.074;2023-06-22T04:33:12;15.73;;;6.60;;
5559;SDS011;2803;47.916;8.074;2023-06-22T04:35:40;12.60;;;6.40;;
5559;SDS011;2803;47.916;8.074;2023-06-22T04:38:08;18.53;;;7.40;;
5559;SDS011;2803;47.916;8.074;2023-06-22T04:40:36;17.60;;;6.90;;
5559;SDS011;2803;47.916;8.074;2023-06-22T04:43:02;20.03;;;6.80;;
5559;SDS011;2803;47.916;8.074;2023-06-22T04:45:31;15.77;;;7.20;;
5559;SDS011;2803;47.916;8.074;2023-06-22T04:47:58;16.70;;;7.10;;
5559;SDS011;2803;47.916;8.074;2023-06-22T04:50:24;21.40;;;7.37;;
5559;SDS011;2803;47.916;8.074;2023-06-22T04:52:52;14.77;;;5.87;;
5559;SDS011;2803;47.916;8.074;2023-06-22T04:55:19;16.83;;;5.60;;
5559;SDS011;2803;47.916;8.074;2023-06-22T04:57:46;25.60;;;7.03;;
5559;SDS011;2803;47.916;8.074;2023-06-22T05:00:14;13.33;;;6.40;;
5559;SDS011;2803;47.916;8.074;2023-06-22T05:02:43;18.80;;;6.53;;
5559;SDS011;2803;47.916;8.074;2023-06-22T05:05:10;12.93;;;5.97;;
5559;SDS011;2803;47.916;8.074;2023-06-22T05:07:39;15.63;;;6.47;;
5559;SDS011;2803;47.916;8.074;2023-06-22T05:10:10;13.77;;;7.07;;
5559;SDS011;2803;47.916;8.074;2023-06-22T05:12:38;12.37;;;6.50;;
5559;SDS011;2803;47.916;8.074;2023-06-22T05:15:05;14.30;;;6.73;;
5559;SDS011;2803;47.916;8.074;2023-06-22T05:17:33;17.30;;;7.30;;
5559;SDS011;2803;47.916;8.074;2023-06-22T05:20:00;12.77;;;6.13;;
5559;SDS011;2803;47.916;8.074;2023-06-22T05:22:27;18.50;;;7.80;;
5559;SDS011;2803;47.916;8.074;2023-06-22T05:24:54;20.60;;;7.53;;
5559;SDS011;2803;47.916;8.074;2023-06-22T05:27:22;16.07;;;6.80;;
5559;SDS011;2803;47.916;8.074;2023-06-22T05:29:48;12.80;;;6.30;;
5559;SDS011;2803;47.916;8.074;2023-06-22T05:32:15;15.33;;;6.63;;
5559;SDS011;2803;47.916;8.074;2023-06-22T05:34:42;13.93;;;6.27;;
5559;SDS011;2803;47.916;8.074;2023-06-22T05:37:09;17.80;;;7.00;;
5559;SDS011;2803;47.916;8.074;2023-06-22T05:39:35;13.23;;;6.17;;
5559;SDS011;2803;47.916;8.074;2023-06-22T05:42:04;14.17;;;6.23;;
5559;SDS011;2803;47.916;8.074;2023-06-22T05:44:33;24.30;;;8.30;;
5559;SDS011;2803;47.916;8.074;2023-06-22T05:46:59;16.30;;;6.87;;
5559;SDS011;2803;47.916;8.074;2023-06-22T05:49:26;14.97;;;6.57;;
5559;SDS011;2803;47.916;8.074;2023-06-22T05:51:54;14.63;;;7.20;;
5559;SDS011;2803;47.916;8.074;2023-06-22T05:54:22;19.00;;;6.77;;
5559;SDS011;2803;47.916;8.074;2023-06-22T05:56:49;22.20;;;6.60;;
5559;SDS011;2803;47.916;8.074;2023-06-22T05:59:16;23.50;;;7.20;;
5559;SDS011;2803;47.916;8.074;2023-06-22T06:01:44;23.13;;;7.53;;
5559;SDS011;2803;47.916;8.074;2023-06-22T06:04:14;21.47;;;6.30;;
5559;SDS011;2803;47.916;8.074;2023-06-22T06:06:41;16.93;;;7.77;;
5559;SDS011;2803;47.916;8.074;2023-06-22T06:09:08;15.20;;;6.10;;
5559;SDS011;2803;47.916;8.074;2023-06-22T06:11:34;23.53;;;7.40;;
5559;SDS011;2803;47.916;8.074;2023-06-22T06:14:01;28.03;;;8.50;;
5559;SDS011;2803;47.916;8.074;2023-06-22T06:16:28;18.63;;;6.00;;
5559;SDS011;2803;47.916;8.074;2023-06-22T06:18:58;14.43;;;6.50;;
5559;SDS011;2803;47.916;8.074;2023-06-22T06:21:25;17.00;;;6.07;;
5559;SDS011;2803;47.916;8.074;2023-06-22T06:23:55;8.33;;;5.70;;
5559;SDS011;2803;47.916;8.074;2023-06-22T06:26:27;30.27;;;6.40;;
5559;SDS011;2803;47.916;8.074;2023-06-22T06:28:55;27.87;;;6.80;;
5559;SDS011;2803;47.916;8.074;2023-06-22T06:31:21;23.13;;;6.40;;
5559;SDS011;2803;47.916;8.074;2023-06-22T06:33:48;13.50;;;6.07;;
5559;SDS011;2803;47.916;8.074;2023-06-22T06:36:16;15.00;;;6.47;;
5559;SDS011;2803;47.916;8.074;2023-06-22T06:38:43;15.50;;;6.80;;
5559;SDS011;2803;47.916;8.074;2023-06-22T06:41:11;24.43;;;6.77;;
5559;SDS011;2803;47.916;8.074;2023-06-22T06:43:39;18.80;;;6.27;;
5559;SDS011;2803;47.916;8.074;2023-06-22T06:46:07;18.60;;;6.00;;
5559;SDS011;2803;47.916;8.074;2023-06-22T06:48:34;12.23;;;6.33;;
5559;SDS011;2803;47.916;8.074;2023-06-22T06:51:01;12.70;;;5.40;;
5559;SDS011;2803;47.916;8.074;2023-06-22T06:53:29;14.43;;;6.47;;
5559;SDS011;2803;47.916;8.074;2023-06-22T06:55:56;20.27;;;5.60;;
5559;SDS011;2803;47.916;8.074;2023-06-22T06:58:22;12.00;;;5.50;;
5559;SDS011;2803;47.916;8.074;2023-06-22T07:00:49;12.97;;;6.10;;
5559;SDS011;2803;47.916;8.074;2023-06-22T07:03:16;16.67;;;7.00;;
5559;SDS011;2803;47.916;8.074;2023-06-22T07:05:42;17.60;;;6.80;;
5559;SDS011;2803;47.916;8.074;2023-06-22T07:08:09;15.00;;;5.80;;
5559;SDS011;2803;47.916;8.074;2023-06-22T07:10:37;16.10;;;5.73;;
5559;SDS011;2803;47.916;8.074;2023-06-22T07:13:04;10.50;;;5.97;;
5559;SDS011;2803;47.916;8.074;2023-06-22T07:15:30;12.10;;;6.07;;
5559;SDS011;2803;47.916;8.074;2023-06-22T07:17:57;16.57;;;7.20;;
5559;SDS011;2803;47.916;8.074;2023-06-22T07:20:24;26.40;;;6.50;;
5559;SDS011;2803;47.916;8.074;2023-06-22T07:22:51;13.20;;;5.80;;
5559;SDS011;2803;47.916;8.074;2023-06-22T07:25:18;29.97;;;8.83;;
5559;SDS011;2803;47.916;8.074;2023-06-22T07:27:46;24.97;;;9.80;;
5559;SDS011;2803;47.916;8.074;2023-06-22T07:30:23;12.43;;;6.17;;
5559;SDS011;2803;47.916;8.074;2023-06-22T07:32:50;17.37;;;6.67;;
5559;SDS011;2803;47.916;8.074;2023-06-22T07:35:17;21.13;;;7.23;;
5559;SDS011;2803;47.916;8.074;2023-06-22T07:37:44;20.57;;;5.97;;
5559;SDS011;2803;47.916;8.074;2023-06-22T07:40:10;10.93;;;5.30;;
5559;SDS011;2803;47.916;8.074;2023-06-22T07:42:38;13.40;;;5.97;;
5559;SDS011;2803;47.916;8.074;2023-06-22T07:45:07;20.13;;;5.80;;
5559;SDS011;2803;47.916;8.074;2023-06-22T07:47:34;15.07;;;6.00;;
5559;SDS011;2803;47.916;8.074;2023-06-22T07:50:01;10.63;;;5.33;;
5559;SDS011;2803;47.916;8.074;2023-06-22T07:52:28;13.83;;;6.43;;
5559;SDS011;2803;47.916;8.074;2023-06-22T07:54:56;21.50;;;6.13;;
5559;SDS011;2803;47.916;8.074;2023-06-22T07:57:23;17.83;;;6.30;;
5559;SDS011;2803;47.916;8.074;2023-06-22T07:59:57;15.13;;;6.53;;
5559;SDS011;2803;47.916;8.074;2023-06-22T08:02:25;16.30;;;5.60;;
5559;SDS011;2803;47.916;8.074;2023-06-22T08:04:52;13.20;;;5.73;;
5559;SDS011;2803;47.916;8.074;2023-06-22T08:07:18;21.93;;;5.93;;
5559;SDS011;2803;47.916;8.074;2023-06-22T08:09:45;20.07;;;5.77;;
5559;SDS011;2803;47.916;8.074;2023-06-22T08:12:14;17.80;;;5.97;;
5559;SDS011;2803;47.916;8.074;2023-06-22T08:14:41;19.73;;;5.70;;
5559;SDS011;2803;47.916;8.074;2023-06-22T08:17:09;18.97;;;5.90;;
5559;SDS011;2803;47.916;8.074;2023-06-22T08:19:38;15.90;;;5.20;;
5559;SDS011;2803;47.916;8.074;2023-06-22T08:22:05;15.50;;;5.93;;
5559;SDS011;2803;47.916;8.074;2023-06-22T08:24:32;16.90;;;5.67;;
5559;SDS011;2803;47.916;8.074;2023-06-22T08:26:58;25.73;;;5.40;;
5559;SDS011;2803;47.916;8.074;2023-06-22T08:29:25;21.17;;;5.83;;
5559;SDS011;2803;47.916;8.074;2023-06-22T08:31:52;24.13;;;5.60;;
5559;SDS011;2803;47.916;8.074;2023-06-22T08:34:18;14.33;;;5.20;;
5559;SDS011;2803;47.916;8.074;2023-06-22T08:36:54;17.77;;;5.93;;
5559;SDS011;2803;47.916;8.074;2023-06-22T08:39:20;14.67;;;5.77;;
5559;SDS011;2803;47.916;8.074;2023-06-22T08:41:47;14.20;;;6.03;;
5559;SDS011;2803;47.916;8.074;2023-06-22T08:44:16;23.80;;;5.77;;
5559;SDS011;2803;47.916;8.074;2023-06-22T08:46:44;18.20;;;5.43;;
5559;SDS011;2803;47.916;8.074;2023-06-22T08:49:11;19.73;;;4.93;;
5559;SDS011;2803;47.916;8.074;2023-06-22T08:51:38;17.23;;;4.90;;
5559;SDS011;2803;47.916;8.074;2023-06-22T08:54:06;19.03;;;5.80;;
5559;SDS011;2803;47.916;8.074;2023-06-22T08:56:34;20.63;;;6.07;;
5559;SDS011;2803;47.916;8.074;2023-06-22T08:59:00;26.77;;;6.23;;
5559;SDS011;2803;47.916;8.074;2023-06-22T09:01:27;15.80;;;6.30;;
5559;SDS011;2803;47.916;8.074;2023-06-22T09:03:54;18.63;;;6.10;;
5559;SDS011;2803;47.916;8.074;2023-06-22T09:06:22;15.67;;;5.00;;
5559;SDS011;2803;47.916;8.074;2023-06-22T09:08:50;16.57;;;5.73;;
5559;SDS011;2803;47.916;8.074;2023-06-22T09:11:18;17.27;;;4.90;;
5559;SDS011;2803;47.916;8.074;2023-06-22T09:13:44;21.60;;;5.60;;
5559;SDS011;2803;47.916;8.074;2023-06-22T09:16:11;20.10;;;5.27;;
5559;SDS011;2803;47.916;8.074;2023-06-22T09:18:38;17.40;;;4.20;;
5559;SDS011;2803;47.916;8.074;2023-06-22T09:21:04;12.10;;;4.70;;
5559;SDS011;2803;47.916;8.074;2023-06-22T09:23:32;25.67;;;5.17;;
5559;SDS011;2803;47.916;8.074;2023-06-22T09:25:58;16.87;;;4.97;;
5559;SDS011;2803;47.916;8.074;2023-06-22T09:28:26;22.53;;;4.30;;
5559;SDS011;2803;47.916;8.074;2023-06-22T09:30:54;14.43;;;4.50;;
5559;SDS011;2803;47.916;8.074;2023-06-22T09:33:23;28.73;;;6.57;;
5559;SDS011;2803;47.916;8.074;2023-06-22T09:35:50;25.23;;;5.20;;
5559;SDS011;2803;47.916;8.074;2023-06-22T09:38:16;22.40;;;5.20;;
5559;SDS011;2803;47.916;8.074;2023-06-22T09:40:43;33.67;;;5.40;;
5559;SDS011;2803;47.916;8.074;2023-06-22T09:43:11;24.47;;;4.90;;
5559;SDS011;2803;47.916;8.074;2023-06-22T09:45:39;20.87;;;5.60;;
5559;SDS011;2803;47.916;8.074;2023-06-22T09:48:06;24.37;;;4.20;;
5559;SDS011;2803;47.916;8.074;2023-06-22T09:50:35;11.67;;;4.57;;
5559;SDS011;2803;47.916;8.074;2023-06-22T09:53:02;28.20;;;4.40;;
5559;SDS011;2803;47.916;8.074;2023-06-22T09:55:29;12.83;;;3.83;;
5559;SDS011;2803;47.916;8.074;2023-06-22T09:57:56;40.73;;;5.57;;
5559;SDS011;2803;47.916;8.074;2023-06-22T10:00:25;14.00;;;3.83;;
5559;SDS011;2803;47.916;8.074;2023-06-22T10:02:54;23.43;;;3.93;;
5559;SDS011;2803;47.916;8.074;2023-06-22T10:05:22;20.67;;;3.57;;
5559;SDS011;2803;47.916;8.074;2023-06-22T10:07:49;18.07;;;3.77;;
5559;SDS011;2803;47.916;8.074;2023-06-22T10:10:17;19.87;;;3.73;;
5559;SDS011;2803;47.916;8.074;2023-06-22T10:12:46;17.57;;;4.33;;
5559;SDS011;2803;47.916;8.074;2023-06-22T10:15:23;10.30;;;3.33;;
5559;SDS011;2803;47.916;8.074;2023-06-22T10:17:53;13.23;;;3.50;;
5559;SDS011;2803;47.916;8.074;2023-06-22T10:20:20;17.60;;;4.83;;
5559;SDS011;2803;47.916;8.074;2023-06-22T10:22:47;15.40;;;4.50;;
5559;SDS011;2803;47.916;8.074;2023-06-22T10:25:13;22.83;;;4.90;;
5559;SDS011;2803;47.916;8.074;2023-06-22T10:27:40;11.50;;;3.87;;
5559;SDS011;2803;47.916;8.074;2023-06-22T10:30:07;19.83;;;4.07;;
5559;SDS011;2803;47.916;8.074;2023-06-22T10:32:34;21.53;;;4.30;;
5559;SDS011;2803;47.916;8.074;2023-06-22T10:35:03;17.63;;;3.47;;
5559;SDS011;2803;47.916;8.074;2023-06-22T10:37:30;12.53;;;3.80;;
5559;SDS011;2803;47.916;8.074;2023-06-22T10:39:57;15.57;;;3.83;;
5559;SDS011;2803;47.916;8.074;2023-06-22T10:42:24;27.27;;;4.67;;
5559;SDS011;2803;47.916;8.074;2023-06-22T10:44:51;14.30;;;3.37;;
5559;SDS011;2803;47.916;8.074;2023-06-22T10:47:18;18.30;;;3.17;;
5559;SDS011;2803;47.916;8.074;2023-06-22T10:49:44;18.03;;;3.93;;
5559;SDS011;2803;47.916;8.074;2023-06-22T10:52:12;12.13;;;3.30;;
5559;SDS011;2803;47.916;8.074;2023-06-22T10:54:39;12.13;;;3.30;;
5559;SDS011;2803;47.916;8.074;2023-06-22T10:57:07;12.60;;;3.87;;
5559;SDS011;2803;47.916;8.074;2023-06-22T10:59:33;16.03;;;3.43;;
5559;SDS011;2803;47.916;8.074;2023-06-22T11:02:00;23.00;;;3.03;;
5559;SDS011;2803;47.916;8.074;2023-06-22T11:04:27;14.63;;;3.07;;
5559;SDS011;2803;47.916;8.074;2023-06-22T11:06:54;23.07;;;3.80;;
5559;SDS011;2803;47.916;8.074;2023-06-22T11:09:26;16.90;;;3.47;;
5559;SDS011;2803;47.916;8.074;2023-06-22T11:11:55;9.40;;;3.40;;
5559;SDS011;2803;47.916;8.074;2023-06-22T11:14:25;18.80;;;4.20;;
5559;SDS011;2803;47.916;8.074;2023-06-22T11:16:53;22.17;;;3.80;;
5559;SDS011;2803;47.916;8.074;2023-06-22T11:19:19;11.93;;;3.33;;
5559;SDS011;2803;47.916;8.074;2023-06-22T11:21:46;21.03;;;3.77;;
5559;SDS011;2803;47.916;8.074;2023-06-22T11:24:13;11.87;;;3.80;;
5559;SDS011;2803;47.916;8.074;2023-06-22T11:26:42;18.60;;;3.10;;
5559;SDS011;2803;47.916;8.074;2023-06-22T11:29:09;18.90;;;3.67;;
5559;SDS011;2803;47.916;8.074;2023-06-22T11:31:36;29.07;;;4.37;;
5559;SDS011;2803;47.916;8.074;2023-06-22T11:34:03;18.63;;;3.60;;
5559;SDS011;2803;47.916;8.074;2023-06-22T11:36:29;12.57;;;3.63;;
5559;SDS011;2803;47.916;8.074;2023-06-22T11:38:59;19.93;;;4.00;;
5559;SDS011;2803;47.916;8.074;2023-06-22T11:41:31;25.77;;;4.27;;
5559;SDS011;2803;47.916;8.074;2023-06-22T11:44:03;21.17;;;4.90;;
5559;SDS011;2803;47.916;8.074;2023-06-22T11:46:33;26.00;;;4.20;;
5559;SDS011;2803;47.916;8.074;2023-06-22T11:49:03;18.13;;;3.73;;
5559;SDS011;2803;47.916;8.074;2023-06-22T11:51:34;15.10;;;3.90;;
5559;SDS011;2803;47.916;8.074;2023-06-22T11:54:03;20.77;;;4.47;;
5559;SDS011;2803;47.916;8.074;2023-06-22T11:56:32;14.17;;;4.10;;
5559;SDS011;2803;47.916;8.074;2023-06-22T11:58:59;14.80;;;4.70;;
5559;SDS011;2803;47.916;8.074;2023-06-22T12:01:27;15.03;;;3.87;;
5559;SDS011;2803;47.916;8.074;2023-06-22T12:03:53;23.53;;;4.40;;
5559;SDS011;2803;47.916;8.074;2023-06-22T12:06:20;15.97;;;3.70;;
5559;SDS011;2803;47.916;8.074;2023-06-22T12:08:47;13.80;;;3.73;;
5559;SDS011;2803;47.916;8.074;2023-06-22T12:11:13;16.70;;;4.50;;
5559;SDS011;2803;47.916;8.074;2023-06-22T12:13:40;18.40;;;4.27;;
5559;SDS011;2803;47.916;8.074;2023-06-22T12:16:07;13.20;;;3.47;;
5559;SDS011;2803;47.916;8.074;2023-06-22T12:18:35;17.53;;;3.93;;
5559;SDS011;2803;47.916;8.074;2023-06-22T12:21:01;11.33;;;4.00;;
5559;SDS011;2803;47.916;8.074;2023-06-22T12:23:28;21.30;;;3.97;;
5559;SDS011;2803;47.916;8.074;2023-06-22T12:25:55;24.23;;;4.10;;
5559;SDS011;2803;47.916;8.074;2023-06-22T12:28:22;20.13;;;4.27;;
5559;SDS011;2803;47.916;8.074;2023-06-22T12:30:49;15.43;;;3.77;;
5559;SDS011;2803;47.916;8.074;2023-06-22T12:33:16;15.73;;;4.50;;
5559;SDS011;2803;47.916;8.074;2023-06-22T12:35:45;16.10;;;3.57;;
5559;SDS011;2803;47.916;8.074;2023-06-22T12:38:13;17.67;;;3.90;;
5559;SDS011;2803;47.916;8.074;2023-06-22T12:40:40;15.50;;;3.73;;
5559;SDS011;2803;47.916;8.074;2023-06-22T12:43:07;13.60;;;3.67;;
5559;SDS011;2803;47.916;8.074;2023-06-22T12:45:33;21.33;;;4.13;;
5559;SDS011;2803;47.916;8.074;2023-06-22T12:48:00;17.63;;;3.57;;
5559;SDS011;2803;47.916;8.074;2023-06-22T12:50:27;15.73;;;3.97;;
5559;SDS011;2803;47.916;8.074;2023-06-22T12:52:55;20.87;;;4.13;;
5559;SDS011;2803;47.916;8.074;2023-06-22T12:55:21;13.13;;;4.33;;
5559;SDS011;2803;47.916;8.074;2023-06-22T12:57:48;17.07;;;3.97;;
5559;SDS011;2803;47.916;8.074;2023-06-22T13:00:16;12.50;;;4.07;;
5559;SDS011;2803;47.916;8.074;2023-06-22T13:02:43;23.33;;;5.07;;
5559;SDS011;2803;47.916;8.074;2023-06-22T13:05:10;13.13;;;4.37;;
5559;SDS011;2803;47.916;8.074;2023-06-22T13:07:37;18.37;;;4.30;;
5559;SDS011;2803;47.916;8.074;2023-06-22T13:10:05;18.63;;;4.53;;
5559;SDS011;2803;47.916;8.074;2023-06-22T13:12:32;14.30;;;3.70;;
5559;SDS011;2803;47.916;8.074;2023-06-22T13:14:59;20.60;;;4.57;;
5559;SDS011;2803;47.916;8.074;2023-06-22T13:17:28;15.13;;;4.47;;
5559;SDS011;2803;47.916;8.074;2023-06-22T13:19:54;14.00;;;5.20;;
5559;SDS011;2803;47.916;8.074;2023-06-22T13:22:25;17.13;;;6.00;;
5559;SDS011;2803;47.916;8.074;2023-06-22T13:24:55;23.20;;;6.40;;
5559;SDS011;2803;47.916;8.074;2023-06-22T13:27:23;22.10;;;6.13;;
5559;SDS011;2803;47.916;8.074;2023-06-22T13:29:50;15.10;;;5.80;;
5559;SDS011;2803;47.916;8.074;2023-06-22T13:32:17;30.23;;;7.07;;
5559;SDS011;2803;47.916;8.074;2023-06-22T13:34:44;22.83;;;5.60;;
5559;SDS011;2803;47.916;8.074;2023-06-22T13:37:10;14.33;;;5.80;;
5559;SDS011;2803;47.916;8.074;2023-06-22T13:39:37;21.87;;;5.90;;
5559;SDS011;2803;47.916;8.074;2023-06-22T13:42:04;16.53;;;6.07;;
5559;SDS011;2803;47.916;8.074;2023-06-22T13:44:33;12.90;;;4.90;;
5559;SDS011;2803;47.916;8.074;2023-06-22T13:46:59;15.13;;;6.40;;
5559;SDS011;2803;47.916;8.074;2023-06-22T13:49:26;27.50;;;6.07;;
5559;SDS011;2803;47.916;8.074;2023-06-22T13:51:53;12.43;;;6.00;;
5559;SDS011;2803;47.916;8.074;2023-06-22T13:54:19;21.13;;;6.70;;
5559;SDS011;2803;47.916;8.074;2023-06-22T13:56:46;17.63;;;6.10;;
5559;SDS011;2803;47.916;8.074;2023-06-22T13:59:13;18.87;;;6.23;;
5559;SDS011;2803;47.916;8.074;2023-06-22T14:01:41;18.57;;;5.73;;
5559;SDS011;2803;47.916;8.074;2023-06-22T14:04:08;11.83;;;4.97;;
5559;SDS011;2803;47.916;8.074;2023-06-22T14:06:35;20.40;;;5.93;;
5559;SDS011;2803;47.916;8.074;2023-06-22T14:09:01;15.57;;;5.57;;
5559;SDS011;2803;47.916;8.074;2023-06-22T14:11:31;16.13;;;5.30;;
5559;SDS011;2803;47.916;8.074;2023-06-22T14:13:58;18.13;;;6.00;;
5559;SDS011;2803;47.916;8.074;2023-06-22T14:16:25;23.13;;;5.30;;
5559;SDS011;2803;47.916;8.074;2023-06-22T14:18:53;12.77;;;5.10;;
5559;SDS011;2803;47.916;8.074;2023-06-22T14:21:20;17.03;;;5.20;;
5559;SDS011;2803;47.916;8.074;2023-06-22T14:23:47;18.87;;;5.67;;
5559;SDS011;2803;47.916;8.074;2023-06-22T14:26:14;14.50;;;4.67;;
5559;SDS011;2803;47.916;8.074;2023-06-22T14:28:42;13.10;;;5.33;;
5559;SDS011;2803;47.916;8.074;2023-06-22T14:31:12;22.57;;;5.50;;
5559;SDS011;2803;47.916;8.074;2023-06-22T14:33:40;19.23;;;5.63;;
5559;SDS011;2803;47.916;8.074;2023-06-22T14:36:08;25.77;;;6.20;;
5559;SDS011;2803;47.916;8.074;2023-06-22T14:38:36;15.80;;;5.30;;
5559;SDS011;2803;47.916;8.074;2023-06-22T14:41:03;15.23;;;4.23;;
5559;SDS011;2803;47.916;8.074;2023-06-22T14:43:29;15.13;;;4.97;;
5559;SDS011;2803;47.916;8.074;2023-06-22T14:45:56;16.70;;;4.90;;
5559;SDS011;2803;47.916;8.074;2023-06-22T14:48:22;15.93;;;4.87;;
5559;SDS011;2803;47.916;8.074;2023-06-22T14:50:49;17.53;;;4.70;;
5559;SDS011;2803;47.916;8.074;2023-06-22T14:53:17;16.07;;;5.17;;
5559;SDS011;2803;47.916;8.074;2023-06-22T14:55:44;17.90;;;5.13;;
5559;SDS011;2803;47.916;8.074;2023-06-22T14:58:11;15.73;;;5.37;;
5559;SDS011;2803;47.916;8.074;2023-06-22T15:00:37;16.07;;;5.90;;
5559;SDS011;2803;47.916;8.074;2023-06-22T15:03:04;15.23;;;5.63;;
5559;SDS011;2803;47.916;8.074;2023-06-22T15:05:36;21.10;;;6.20;;